sensor_id;sensor_type;location;lat;lon;timestamp;pressure;altitude;pressure_sealevel;temperature;humidity
62524;BME280;53689;56.878;60.672;2024-03-02T00:00:59;99669.97;;;24.79;22.95
62524;BME280;53689;56.878;60.672;2024-03-02T00:03:28;99675.66;;;24.85;22.29
62524;BME280;53689;56.878;60.672;2024-03-02T00:05:55;99669.22;;;24.86;21.71
62524;BME280;53689;56.878;60.672;2024-03-02T00:08:24;99672.50;;;24.81;20.07
62524;BME280;53689;56.878;60.672;2024-03-02T00:10:57;99672.16;;;24.76;22.00
62524;BME280;53689;56.878;60.672;2024-03-02T00:13:26;99680.78;;;24.79;21.73
62524;BME280;53689;56.878;60.672;2024-03-02T00:15:54;99674.69;;;24.77;22.34
62524;BME280;53689;56.878;60.672;2024-03-02T00:18:26;99672.84;;;24.78;22.45
62524;BME280;53689;56.878;60.672;2024-03-02T00:20:57;99667.34;;;24.86;21.73
62524;BME280;53689;56.878;60.672;2024-03-02T00:23:29;99677.53;;;24.84;20.97
62524;BME280;53689;56.878;60.672;2024-03-02T00:25:57;99678.56;;;24.83;22.19
62524;BME280;53689;56.878;60.672;2024-03-02T00:28:26;99675.38;;;24.79;20.92
62524;BME280;53689;56.878;60.672;2024-03-02T00:30:58;99671.97;;;24.77;22.21
62524;BME280;53689;56.878;60.672;2024-03-02T00:33:27;99670.31;;;24.76;21.80
62524;BME280;53689;56.878;60.672;2024-03-02T00:35:58;99677.41;;;24.77;22.42
62524;BME280;53689;56.878;60.672;2024-03-02T00:38:27;99678.09;;;24.79;21.83
62524;BME280;53689;56.878;60.672;2024-03-02T00:40:56;99677.34;;;24.86;22.05
62524;BME280;53689;56.878;60.672;2024-03-02T00:43:42;99683.50;;;24.79;22.05
62524;BME280;53689;56.878;60.672;2024-03-02T00:46:16;99688.22;;;24.77;22.80
62524;BME280;53689;56.878;60.672;2024-03-02T00:48:52;99687.56;;;24.75;21.66
62524;BME280;53689;56.878;60.672;2024-03-02T00:51:23;99685.69;;;24.76;23.01
62524;BME280;53689;56.878;60.672;2024-03-02T00:53:52;99686.72;;;24.75;20.63
62524;BME280;53689;56.878;60.672;2024-03-02T00:56:20;99691.81;;;24.78;21.75
62524;BME280;53689;56.878;60.672;2024-03-02T00:58:48;99694.97;;;24.82;21.85
62524;BME280;53689;56.878;60.672;2024-03-02T01:01:16;99687.03;;;24.80;22.05
62524;BME280;53689;56.878;60.672;2024-03-02T01:03:44;99687.38;;;24.77;19.25
62524;BME280;53689;56.878;60.672;2024-03-02T01:06:12;99689.63;;;24.73;21.33
62524;BME280;53689;56.878;60.672;2024-03-02T01:08:42;99686.91;;;24.73;22.58
62524;BME280;53689;56.878;60.672;2024-03-02T01:11:09;99687.94;;;24.72;22.59
62524;BME280;53689;56.878;60.672;2024-03-02T01:13:37;99685.22;;;24.72;22.00
62524;BME280;53689;56.878;60.672;2024-03-02T01:16:05;99690.25;;;24.75;21.77
62524;BME280;53689;56.878;60.672;2024-03-02T01:18:33;99695.69;;;24.75;21.60
62524;BME280;53689;56.878;60.672;2024-03-02T01:21:02;99687.75;;;24.74;23.72
62524;BME280;53689;56.878;60.672;2024-03-02T01:23:30;99687.94;;;24.72;24.47
62524;BME280;53689;56.878;60.672;2024-03-02T01:25:59;99690.63;;;24.72;24.79
62524;BME280;53689;56.878;60.672;2024-03-02T01:28:27;99691.03;;;24.69;23.76
62524;BME280;53689;56.878;60.672;2024-03-02T01:30:55;99682.91;;;24.69;23.17
62524;BME280;53689;56.878;60.672;2024-03-02T01:33:23;99687.28;;;24.70;22.71
62524;BME280;53689;56.878;60.672;2024-03-02T01:35:51;99688.59;;;24.74;22.20
62524;BME280;53689;56.878;60.672;2024-03-02T01:38:19;99690.63;;;24.72;23.22
62524;BME280;53689;56.878;60.672;2024-03-02T01:40:47;99694.38;;;24.71;22.23
62524;BME280;53689;56.878;60.672;2024-03-02T01:43:16;99684.75;;;24.69;22.76
62524;BME280;53689;56.878;60.672;2024-03-02T01:45:44;99686.81;;;24.66;22.92
62524;BME280;53689;56.878;60.672;2024-03-02T01:48:12;99677.00;;;24.65;23.36
62524;BME280;53689;56.878;60.672;2024-03-02T01:50:40;99681.78;;;24.63;22.61
62524;BME280;53689;56.878;60.672;2024-03-02T01:53:09;99681.69;;;24.72;22.29
62524;BME280;53689;56.878;60.672;2024-03-02T01:55:36;99684.41;;;24.72;22.00
62524;BME280;53689;56.878;60.672;2024-03-02T01:58:04;99682.69;;;24.71;22.28
62524;BME280;53689;56.878;60.672;2024-03-02T02:00:34;99685.13;;;24.65;22.22
62524;BME280;53689;56.878;60.672;2024-03-02T02:03:01;99691.84;;;24.70;21.33
62524;BME280;53689;56.878;60.672;2024-03-02T02:05:29;99696.59;;;24.67;25.41
62524;BME280;53689;56.878;60.672;2024-03-02T02:07:58;99691.75;;;24.63;23.85
62524;BME280;53689;56.878;60.672;2024-03-02T02:10:26;99681.38;;;24.66;23.50
62524;BME280;53689;56.878;60.672;2024-03-02T02:12:54;99686.25;;;24.71;23.91
62524;BME280;53689;56.878;60.672;2024-03-02T02:15:25;99688.47;;;24.67;23.35
62524;BME280;53689;56.878;60.672;2024-03-02T02:17:56;99685.94;;;24.66;22.98
62524;BME280;53689;56.878;60.672;2024-03-02T02:20:24;99686.81;;;24.66;23.25
62524;BME280;53689;56.878;60.672;2024-03-02T02:22:56;99686.63;;;24.68;22.48
62524;BME280;53689;56.878;60.672;2024-03-02T02:25:24;99693.06;;;24.67;23.06
62524;BME280;53689;56.878;60.672;2024-03-02T02:27:52;99699.78;;;24.71;21.97
62524;BME280;53689;56.878;60.672;2024-03-02T02:30:21;99699.41;;;24.74;20.08
62524;BME280;53689;56.878;60.672;2024-03-02T02:32:49;99699.41;;;24.74;20.70
62524;BME280;53689;56.878;60.672;2024-03-02T02:35:17;99702.81;;;24.76;21.12
62524;BME280;53689;56.878;60.672;2024-03-02T02:37:46;99702.13;;;24.74;22.14
62524;BME280;53689;56.878;60.672;2024-03-02T02:40:16;99700.44;;;24.73;21.60
62524;BME280;53689;56.878;60.672;2024-03-02T02:42:44;99696.91;;;24.73;22.08
62524;BME280;53689;56.878;60.672;2024-03-02T02:45:12;99699.78;;;24.71;19.57
62524;BME280;53689;56.878;60.672;2024-03-02T02:47:40;99696.72;;;24.74;21.56
62524;BME280;53689;56.878;60.672;2024-03-02T02:50:10;99698.94;;;24.71;20.67
62524;BME280;53689;56.878;60.672;2024-03-02T02:52:39;99701.47;;;24.72;22.07
62524;BME280;53689;56.878;60.672;2024-03-02T02:55:09;99705.59;;;24.68;22.23
62524;BME280;53689;56.878;60.672;2024-03-02T02:57:40;99703.91;;;24.67;21.20
62524;BME280;53689;56.878;60.672;2024-03-02T03:00:09;99693.72;;;24.69;22.41
62524;BME280;53689;56.878;60.672;2024-03-02T03:02:38;99692.63;;;24.40;21.21
62524;BME280;53689;56.878;60.672;2024-03-02T03:05:06;99694.44;;;24.63;22.11
62524;BME280;53689;56.878;60.672;2024-03-02T03:07:34;99696.78;;;24.66;22.54
62524;BME280;53689;56.878;60.672;2024-03-02T03:10:03;99683.78;;;24.61;21.26
62524;BME280;53689;56.878;60.672;2024-03-02T03:12:31;99686.69;;;24.60;22.01
62524;BME280;53689;56.878;60.672;2024-03-02T03:15:00;99696.34;;;24.62;21.84
62524;BME280;53689;56.878;60.672;2024-03-02T03:17:28;99696.13;;;24.64;22.55
62524;BME280;53689;56.878;60.672;2024-03-02T03:19:56;99697.81;;;24.65;21.88
62524;BME280;53689;56.878;60.672;2024-03-02T03:22:23;99697.63;;;24.66;20.95
62524;BME280;53689;56.878;60.672;2024-03-02T03:24:51;99699.78;;;24.71;21.27
62524;BME280;53689;56.878;60.672;2024-03-02T03:27:19;99697.94;;;24.72;21.87
62524;BME280;53689;56.878;60.672;2024-03-02T03:29:47;99685.94;;;24.66;21.55
62524;BME280;53689;56.878;60.672;2024-03-02T03:32:17;99691.03;;;24.69;21.54
62524;BME280;53689;56.878;60.672;2024-03-02T03:34:45;99684.66;;;24.62;21.31
62524;BME280;53689;56.878;60.672;2024-03-02T03:37:12;99688.47;;;24.67;21.65
62524;BME280;53689;56.878;60.672;2024-03-02T03:39:40;99689.50;;;24.66;20.75
62524;BME280;53689;56.878;60.672;2024-03-02T03:42:08;99684.41;;;24.72;20.89
62524;BME280;53689;56.878;60.672;2024-03-02T03:44:36;99694.38;;;24.71;21.96
62524;BME280;53689;56.878;60.672;2024-03-02T03:47:04;99692.22;;;24.66;20.75
62524;BME280;53689;56.878;60.672;2024-03-02T03:49:34;99694.75;;;24.68;22.15
62524;BME280;53689;56.878;60.672;2024-03-02T03:52:02;99702.41;;;24.64;21.68
62524;BME280;53689;56.878;60.672;2024-03-02T03:54:30;99702.19;;;24.66;21.52
62524;BME280;53689;56.878;60.672;2024-03-02T03:56:58;99696.78;;;24.66;21.17
62524;BME280;53689;56.878;60.672;2024-03-02T03:59:26;99702.19;;;24.66;20.70
62524;BME280;53689;56.878;60.672;2024-03-02T04:01:53;99689.13;;;24.70;20.84
62524;BME280;53689;56.878;60.672;2024-03-02T04:04:21;99695.03;;;24.73;20.31
62524;BME280;53689;56.878;60.672;2024-03-02T04:06:50;99699.78;;;24.71;21.33
62524;BME280;53689;56.878;60.672;2024-03-02T04:09:21;99692.69;;;24.70;21.19
62524;BME280;53689;56.878;60.672;2024-03-02T04:11:49;99704.34;;;24.71;21.25
62524;BME280;53689;56.878;60.672;2024-03-02T04:14:17;99686.44;;;24.70;21.61
62524;BME280;53689;56.878;60.672;2024-03-02T04:16:45;99678.31;;;24.70;18.95
62524;BME280;53689;56.878;60.672;2024-03-02T04:19:13;99679.44;;;24.75;20.41
62524;BME280;53689;56.878;60.672;2024-03-02T04:21:40;99679.81;;;24.72;20.85
62524;BME280;53689;56.878;60.672;2024-03-02T04:24:10;99688.78;;;24.73;19.22
62524;BME280;53689;56.878;60.672;2024-03-02T04:26:37;99688.97;;;24.71;21.35
62524;BME280;53689;56.878;60.672;2024-03-02T04:29:05;99685.22;;;24.72;21.34
62524;BME280;53689;56.878;60.672;2024-03-02T04:31:33;99683.53;;;24.71;21.40
62524;BME280;53689;56.878;60.672;2024-03-02T04:34:01;99683.72;;;24.70;20.64
62524;BME280;53689;56.878;60.672;2024-03-02T04:36:29;99686.72;;;24.75;19.99
62524;BME280;53689;56.878;60.672;2024-03-02T04:38:57;99693.66;;;24.77;20.71
62524;BME280;53689;56.878;60.672;2024-03-02T04:41:26;99689.25;;;24.76;20.38
62524;BME280;53689;56.878;60.672;2024-03-02T04:43:54;99687.94;;;24.72;21.12
62524;BME280;53689;56.878;60.672;2024-03-02T04:46:22;99689.63;;;24.73;20.97
62524;BME280;53689;56.878;60.672;2024-03-02T04:48:50;99681.50;;;24.73;20.76
62524;BME280;53689;56.878;60.672;2024-03-02T04:51:18;99680.66;;;24.73;19.87
62524;BME280;53689;56.878;60.672;2024-03-02T04:53:46;99681.63;;;24.80;17.70
62524;BME280;53689;56.878;60.672;2024-03-02T04:56:13;99690.78;;;24.79;20.14
62524;BME280;53689;56.878;60.672;2024-03-02T04:58:43;99686.38;;;24.78;18.90
62524;BME280;53689;56.878;60.672;2024-03-02T05:01:10;99685.53;;;24.77;20.07
62524;BME280;53689;56.878;60.672;2024-03-02T05:03:39;99685.88;;;24.74;20.19
62524;BME280;53689;56.878;60.672;2024-03-02T05:06:06;99676.94;;;24.74;20.22
62524;BME280;53689;56.878;60.672;2024-03-02T05:08:34;99668.97;;;24.72;21.40
62524;BME280;53689;56.878;60.672;2024-03-02T05:11:03;99653.75;;;24.71;20.97
62524;BME280;53689;56.878;60.672;2024-03-02T05:13:31;99658.75;;;24.83;19.38
62524;BME280;53689;56.878;60.672;2024-03-02T05:16:00;99679.13;;;24.78;20.72
62524;BME280;53689;56.878;60.672;2024-03-02T05:18:28;99678.91;;;24.80;19.95
62524;BME280;53689;56.878;60.672;2024-03-02T05:20:55;99680.97;;;24.78;20.71
62524;BME280;53689;56.878;60.672;2024-03-02T05:23:23;99679.13;;;24.78;20.84
62524;BME280;53689;56.878;60.672;2024-03-02T05:25:51;99666.91;;;24.74;21.75
62524;BME280;53689;56.878;60.672;2024-03-02T05:28:19;99665.72;;;24.77;19.66
62524;BME280;53689;56.878;60.672;2024-03-02T05:30:47;99675.19;;;24.81;19.61
62524;BME280;53689;56.878;60.672;2024-03-02T05:33:16;99670.78;;;24.80;19.03
62524;BME280;53689;56.878;60.672;2024-03-02T05:35:44;99668.59;;;24.75;20.14
62524;BME280;53689;56.878;60.672;2024-03-02T05:38:12;99681.44;;;24.82;20.38
62524;BME280;53689;56.878;60.672;2024-03-02T05:40:41;99681.13;;;24.76;20.52
62524;BME280;53689;56.878;60.672;2024-03-02T05:43:09;99677.22;;;24.79;19.08
62524;BME280;53689;56.878;60.672;2024-03-02T05:45:38;99679.13;;;24.78;20.19
62524;BME280;53689;56.878;60.672;2024-03-02T05:48:07;99687.16;;;24.87;20.99
62524;BME280;53689;56.878;60.672;2024-03-02T05:50:37;99678.72;;;24.82;19.19
62524;BME280;53689;56.878;60.672;2024-03-02T05:53:05;99667.06;;;24.81;20.63
62524;BME280;53689;56.878;60.672;2024-03-02T05:55:34;99670.78;;;24.80;20.81
62524;BME280;53689;56.878;60.672;2024-03-02T05:58:01;99672.84;;;24.78;20.21
62524;BME280;53689;56.878;60.672;2024-03-02T06:00:29;99675.38;;;24.79;19.34
62524;BME280;53689;56.878;60.672;2024-03-02T06:02:57;99664.94;;;24.91;19.71
62524;BME280;53689;56.878;60.672;2024-03-02T06:05:25;99671.09;;;25.00;20.26
62524;BME280;53689;56.878;60.672;2024-03-02T06:07:54;99671.94;;;24.86;20.33
62524;BME280;53689;56.878;60.672;2024-03-02T06:10:22;99662.47;;;24.82;21.05
62524;BME280;53689;56.878;60.672;2024-03-02T06:12:50;99680.41;;;24.83;21.81
62524;BME280;53689;56.878;60.672;2024-03-02T06:15:18;99671.63;;;24.80;21.26
62524;BME280;53689;56.878;60.672;2024-03-02T06:17:46;99676.41;;;24.78;21.01
62524;BME280;53689;56.878;60.672;2024-03-02T06:20:14;99682.94;;;24.84;20.94
62524;BME280;53689;56.878;60.672;2024-03-02T06:22:42;99671.00;;;24.78;20.40
62524;BME280;53689;56.878;60.672;2024-03-02T06:25:12;99680.41;;;24.83;19.07
62524;BME280;53689;56.878;60.672;2024-03-02T06:27:39;99680.41;;;24.83;20.76
62524;BME280;53689;56.878;60.672;2024-03-02T06:30:08;99677.69;;;24.83;20.45
62524;BME280;53689;56.878;60.672;2024-03-02T06:32:36;99683.50;;;24.79;20.93
62524;BME280;53689;56.878;60.672;2024-03-02T06:35:05;99680.78;;;24.79;20.75
62524;BME280;53689;56.878;60.672;2024-03-02T06:37:33;99672.66;;;24.79;20.27
62524;BME280;53689;56.878;60.672;2024-03-02T06:40:01;99672.50;;;24.81;21.32
62524;BME280;53689;56.878;60.672;2024-03-02T06:42:30;99661.28;;;24.84;19.48
62524;BME280;53689;56.878;60.672;2024-03-02T06:44:58;99657.91;;;24.82;20.61
62524;BME280;53689;56.878;60.672;2024-03-02T06:47:26;99648.94;;;24.82;20.75
62524;BME280;53689;56.878;60.672;2024-03-02T06:49:54;99656.25;;;24.81;20.83
62524;BME280;53689;56.878;60.672;2024-03-02T06:52:21;99646.63;;;24.78;20.14
62524;BME280;53689;56.878;60.672;2024-03-02T06:54:51;99647.44;;;24.79;21.45
62524;BME280;53689;56.878;60.672;2024-03-02T06:57:18;99656.25;;;24.81;20.05
62524;BME280;53689;56.878;60.672;2024-03-02T06:59:48;99648.13;;;24.81;19.87
62524;BME280;53689;56.878;60.672;2024-03-02T07:02:16;99639.13;;;24.80;20.88
62524;BME280;53689;56.878;60.672;2024-03-02T07:04:44;99637.28;;;24.81;19.90
62524;BME280;53689;56.878;60.672;2024-03-02T07:07:11;99636.59;;;24.79;21.11
62524;BME280;53689;56.878;60.672;2024-03-02T07:09:39;99632.38;;;24.76;20.50
62524;BME280;53689;56.878;60.672;2024-03-02T07:12:07;99631.72;;;24.74;20.82
62524;BME280;53689;56.878;60.672;2024-03-02T07:14:35;99638.63;;;24.77;20.86
62524;BME280;53689;56.878;60.672;2024-03-02T07:17:06;99639.13;;;24.80;19.54
62524;BME280;53689;56.878;60.672;2024-03-02T07:19:34;99625.88;;;24.86;20.49
62524;BME280;53689;56.878;60.672;2024-03-02T07:22:06;99633.34;;;24.84;20.98
62524;BME280;53689;56.878;60.672;2024-03-02T07:24:39;99630.38;;;24.78;22.09
62524;BME280;53689;56.878;60.672;2024-03-02T07:27:07;99628.66;;;24.77;21.49
62524;BME280;53689;56.878;60.672;2024-03-02T07:29:35;99633.22;;;24.77;21.14
62524;BME280;53689;56.878;60.672;2024-03-02T07:32:06;99621.38;;;24.78;20.86
62524;BME280;53689;56.878;60.672;2024-03-02T07:34:34;99621.22;;;24.79;20.84
62524;BME280;53689;56.878;60.672;2024-03-02T07:37:02;99615.06;;;24.86;19.16
62524;BME280;53689;56.878;60.672;2024-03-02T07:39:30;99618.13;;;24.83;21.33
62524;BME280;53689;56.878;60.672;2024-03-02T07:41:59;99604.09;;;24.79;21.01
62524;BME280;53689;56.878;60.672;2024-03-02T07:44:28;99599.72;;;24.78;21.49
62524;BME280;53689;56.878;60.672;2024-03-02T07:46:56;99597.09;;;24.85;21.31
62524;BME280;53689;56.878;60.672;2024-03-02T07:49:25;99589.72;;;24.78;22.31
62524;BME280;53689;56.878;60.672;2024-03-02T07:51:53;99587.03;;;24.78;21.45
62524;BME280;53689;56.878;60.672;2024-03-02T07:54:21;99583.56;;;24.85;20.98
62524;BME280;53689;56.878;60.672;2024-03-02T07:56:48;99574.47;;;25.07;18.85
62524;BME280;53689;56.878;60.672;2024-03-02T07:59:17;99580.84;;;25.00;19.09
62524;BME280;53689;56.878;60.672;2024-03-02T08:01:45;99579.34;;;24.97;19.41
62524;BME280;53689;56.878;60.672;2024-03-02T08:04:12;99573.47;;;24.93;19.73
62524;BME280;53689;56.878;60.672;2024-03-02T08:06:42;99571.34;;;24.89;21.73
62524;BME280;53689;56.878;60.672;2024-03-02T08:09:10;99564.59;;;24.85;21.22
62524;BME280;53689;56.878;60.672;2024-03-02T08:11:37;99576.28;;;24.85;22.15
62524;BME280;53689;56.878;60.672;2024-03-02T08:14:05;99566.31;;;24.86;19.37
62524;BME280;53689;56.878;60.672;2024-03-02T08:16:34;99560.88;;;24.86;20.78
62524;BME280;53689;56.878;60.672;2024-03-02T08:19:01;99561.06;;;24.84;21.79
62524;BME280;53689;56.878;60.672;2024-03-02T08:21:30;99562.91;;;24.84;20.26
62524;BME280;53689;56.878;60.672;2024-03-02T08:23:59;99560.19;;;24.84;21.35
62524;BME280;53689;56.878;60.672;2024-03-02T08:26:27;99559.16;;;24.85;18.80
62524;BME280;53689;56.878;60.672;2024-03-02T08:28:55;99550.03;;;24.86;19.72
62524;BME280;53689;56.878;60.672;2024-03-02T08:31:23;99553.09;;;24.98;19.34
62524;BME280;53689;56.878;60.672;2024-03-02T08:33:51;99553.00;;;24.91;19.58
62524;BME280;53689;56.878;60.672;2024-03-02T08:36:20;99551.34;;;24.90;20.61
62524;BME280;53689;56.878;60.672;2024-03-02T08:38:49;99559.63;;;24.88;20.04
62524;BME280;53689;56.878;60.672;2024-03-02T08:41:18;99557.13;;;24.87;21.26
62524;BME280;53689;56.878;60.672;2024-03-02T08:43:46;99555.72;;;24.91;21.20
62524;BME280;53689;56.878;60.672;2024-03-02T08:46:14;99550.69;;;24.88;21.38
62524;BME280;53689;56.878;60.672;2024-03-02T08:48:42;99547.22;;;24.94;20.08
62524;BME280;53689;56.878;60.672;2024-03-02T08:51:10;99556.66;;;24.98;20.82
62524;BME280;53689;56.878;60.672;2024-03-02T08:53:38;99556.56;;;24.91;21.06
62524;BME280;53689;56.878;60.672;2024-03-02T08:56:06;99549.66;;;24.89;22.08
62524;BME280;53689;56.878;60.672;2024-03-02T08:58:35;99543.59;;;24.87;20.76
62524;BME280;53689;56.878;60.672;2024-03-02T09:01:03;99548.81;;;24.88;20.32
62524;BME280;53689;56.878;60.672;2024-03-02T09:03:31;99542.56;;;24.88;21.84
62524;BME280;53689;56.878;60.672;2024-03-02T09:06:00;99529.84;;;24.88;19.94
62524;BME280;53689;56.878;60.672;2024-03-02T09:08:28;99530.22;;;25.00;20.20
62524;BME280;53689;56.878;60.672;2024-03-02T09:10:56;99533.66;;;24.94;21.59
62524;BME280;53689;56.878;60.672;2024-03-02T09:13:24;99528.91;;;24.96;21.69
62524;BME280;53689;56.878;60.672;2024-03-02T09:15:53;99522.41;;;24.90;21.15
62524;BME280;53689;56.878;60.672;2024-03-02T09:18:21;99519.47;;;24.92;21.04
62524;BME280;53689;56.878;60.672;2024-03-02T09:20:50;99516.66;;;25.00;20.34
62524;BME280;53689;56.878;60.672;2024-03-02T09:23:17;99508.06;;;24.97;19.95
62524;BME280;53689;56.878;60.672;2024-03-02T09:25:45;99500.69;;;25.05;19.52
62524;BME280;53689;56.878;60.672;2024-03-02T09:28:15;99502.59;;;25.12;18.69
62524;BME280;53689;56.878;60.672;2024-03-02T09:30:43;99502.72;;;25.03;19.82
62524;BME280;53689;56.878;60.672;2024-03-02T09:33:12;99494.97;;;25.00;20.97
62524;BME280;53689;56.878;60.672;2024-03-02T09:35:42;99495.84;;;25.01;20.70
62524;BME280;53689;56.878;60.672;2024-03-02T09:38:11;99497.88;;;24.99;19.47
62524;BME280;53689;56.878;60.672;2024-03-02T09:40:39;99502.09;;;25.01;19.76
62524;BME280;53689;56.878;60.672;2024-03-02T09:43:09;99489.22;;;25.25;19.57
62524;BME280;53689;56.878;60.672;2024-03-02T09:45:37;99484.97;;;25.16;19.24
62524;BME280;53689;56.878;60.672;2024-03-02T09:48:06;99484.03;;;25.08;19.20
62524;BME280;53689;56.878;60.672;2024-03-02T09:50:35;99486.47;;;25.03;19.72
62524;BME280;53689;56.878;60.672;2024-03-02T09:53:03;99486.47;;;25.03;20.14
62524;BME280;53689;56.878;60.672;2024-03-02T09:55:32;99482.09;;;25.02;21.61
62524;BME280;53689;56.878;60.672;2024-03-02T09:58:00;99481.06;;;25.03;20.34
62524;BME280;53689;56.878;60.672;2024-03-02T10:00:28;99483.66;;;25.12;18.61
62524;BME280;53689;56.878;60.672;2024-03-02T10:02:55;99472.81;;;25.12;18.93
62524;BME280;53689;56.878;60.672;2024-03-02T10:05:24;99472.63;;;25.13;20.65
62524;BME280;53689;56.878;60.672;2024-03-02T10:08:03;99471.53;;;25.07;19.21
62524;BME280;53689;56.878;60.672;2024-03-02T10:10:36;99466.56;;;25.11;20.07
62524;BME280;53689;56.878;60.672;2024-03-02T10:13:04;99456.94;;;25.08;20.18
62524;BME280;53689;56.878;60.672;2024-03-02T10:15:32;99455.44;;;25.06;18.88
62524;BME280;53689;56.878;60.672;2024-03-02T10:18:00;99452.16;;;25.11;19.67
62524;BME280;53689;56.878;60.672;2024-03-02T10:20:28;99453.94;;;25.18;19.79
62524;BME280;53689;56.878;60.672;2024-03-02T10:22:56;99451.59;;;25.15;18.54
62524;BME280;53689;56.878;60.672;2024-03-02T10:25:38;99454.69;;;25.12;19.25
62524;BME280;53689;56.878;60.672;2024-03-02T10:28:17;99468.25;;;25.12;18.42
62524;BME280;53689;56.878;60.672;2024-03-02T10:30:48;99454.06;;;25.10;19.25
62524;BME280;53689;56.878;60.672;2024-03-02T10:33:17;99455.72;;;25.11;19.70
62524;BME280;53689;56.878;60.672;2024-03-02T10:35:45;99457.00;;;25.15;18.43
62524;BME280;53689;56.878;60.672;2024-03-02T10:38:13;99445.47;;;25.28;21.03
62524;BME280;53689;56.878;60.672;2024-03-02T10:40:47;99439.41;;;25.26;17.80
62524;BME280;53689;56.878;60.672;2024-03-02T10:43:15;99433.06;;;25.19;19.21
62524;BME280;53689;56.878;60.672;2024-03-02T10:45:43;99440.09;;;25.13;18.92
62524;BME280;53689;56.878;60.672;2024-03-02T10:48:11;99434.69;;;25.13;19.18
62524;BME280;53689;56.878;60.672;2024-03-02T10:50:40;99426.84;;;25.18;18.75
62524;BME280;53689;56.878;60.672;2024-03-02T10:53:08;99428.50;;;25.19;17.74
62524;BME280;53689;56.878;60.672;2024-03-02T10:55:35;99420.50;;;25.33;17.18
62524;BME280;53689;56.878;60.672;2024-03-02T10:58:06;99424.19;;;25.25;18.67
62524;BME280;53689;56.878;60.672;2024-03-02T11:00:38;99419.97;;;25.23;18.86
62524;BME280;53689;56.878;60.672;2024-03-02T11:03:07;99415.78;;;25.20;19.34
62524;BME280;53689;56.878;60.672;2024-03-02T11:05:37;99419.13;;;25.22;18.68
62524;BME280;53689;56.878;60.672;2024-03-02T11:08:07;99418.50;;;25.20;17.79
62524;BME280;53689;56.878;60.672;2024-03-02T11:10:38;99414.75;;;25.21;18.46
62524;BME280;53689;56.878;60.672;2024-03-02T11:13:11;99415.25;;;25.31;17.67
62524;BME280;53689;56.878;60.672;2024-03-02T11:15:40;99406.66;;;25.28;18.43
62524;BME280;53689;56.878;60.672;2024-03-02T11:18:12;99404.16;;;25.26;19.83
62524;BME280;53689;56.878;60.672;2024-03-02T11:20:41;99402.94;;;25.29;18.88
62524;BME280;53689;56.878;60.672;2024-03-02T11:23:09;99396.69;;;25.28;19.11
62524;BME280;53689;56.878;60.672;2024-03-02T11:25:37;99396.03;;;25.26;20.59
62524;BME280;53689;56.878;60.672;2024-03-02T11:28:06;99397.25;;;25.24;19.68
62524;BME280;53689;56.878;60.672;2024-03-02T11:30:51;99389.44;;;25.35;18.01
62524;BME280;53689;56.878;60.672;2024-03-02T11:33:24;99382.72;;;25.31;18.60
62524;BME280;53689;56.878;60.672;2024-03-02T11:35:52;99371.88;;;25.31;17.97
62524;BME280;53689;56.878;60.672;2024-03-02T11:38:20;99381.25;;;25.29;18.86
62524;BME280;53689;56.878;60.672;2024-03-02T11:40:48;99365.78;;;25.23;20.65
62524;BME280;53689;56.878;60.672;2024-03-02T11:43:16;99361.56;;;25.20;20.49
62524;BME280;53689;56.878;60.672;2024-03-02T11:45:44;99362.88;;;25.24;19.68
62524;BME280;53689;56.878;60.672;2024-03-02T11:48:15;99359.19;;;25.32;19.47
62524;BME280;53689;56.878;60.672;2024-03-02T11:50:47;99360.66;;;25.34;20.26
62524;BME280;53689;56.878;60.672;2024-03-02T11:53:16;99365.06;;;25.35;19.22
62524;BME280;53689;56.878;60.672;2024-03-02T11:55:44;99362.47;;;25.27;18.72
62524;BME280;53689;56.878;60.672;2024-03-02T11:58:13;99354.47;;;25.19;20.54
62524;BME280;53689;56.878;60.672;2024-03-02T12:00:40;99364.56;;;25.25;20.64
62524;BME280;53689;56.878;60.672;2024-03-02T12:03:09;99364.75;;;25.24;19.33
62524;BME280;53689;56.878;60.672;2024-03-02T12:05:41;99360.81;;;25.26;19.73
62524;BME280;53689;56.878;60.672;2024-03-02T12:08:11;99360.91;;;25.40;18.13
62524;BME280;53689;56.878;60.672;2024-03-02T12:10:39;99354.97;;;25.29;19.29
62524;BME280;53689;56.878;60.672;2024-03-02T12:13:07;99351.38;;;25.22;19.27
62524;BME280;53689;56.878;60.672;2024-03-02T12:15:36;99351.78;;;25.19;19.53
62524;BME280;53689;56.878;60.672;2024-03-02T12:18:05;99347.00;;;25.21;20.04
62524;BME280;53689;56.878;60.672;2024-03-02T12:20:33;99348.88;;;25.20;18.19
62524;BME280;53689;56.878;60.672;2024-03-02T12:23:05;99348.88;;;25.20;19.99
62524;BME280;53689;56.878;60.672;2024-03-02T12:25:33;99350.59;;;25.28;19.20
62524;BME280;53689;56.878;60.672;2024-03-02T12:28:02;99346.63;;;25.24;19.83
62524;BME280;53689;56.878;60.672;2024-03-02T12:30:31;99344.94;;;25.23;19.92
62524;BME280;53689;56.878;60.672;2024-03-02T12:33:00;99348.03;;;25.20;20.55
62524;BME280;53689;56.878;60.672;2024-03-02T12:35:27;99346.16;;;25.20;19.78
62524;BME280;53689;56.878;60.672;2024-03-02T12:37:55;99349.06;;;25.19;21.41
62524;BME280;53689;56.878;60.672;2024-03-02T12:40:24;99346.16;;;25.20;19.40
62524;BME280;53689;56.878;60.672;2024-03-02T12:42:52;99337.44;;;25.25;18.98
62524;BME280;53689;56.878;60.672;2024-03-02T12:45:20;99340.03;;;25.33;20.99
62524;BME280;53689;56.878;60.672;2024-03-02T12:47:48;99335.81;;;25.31;19.45
62524;BME280;53689;56.878;60.672;2024-03-02T12:50:16;99337.06;;;25.28;19.62
62524;BME280;53689;56.878;60.672;2024-03-02T12:52:51;99327.25;;;25.27;20.57
62524;BME280;53689;56.878;60.672;2024-03-02T12:55:21;99328.69;;;25.23;20.29
62524;BME280;53689;56.878;60.672;2024-03-02T12:57:51;99326.16;;;25.21;19.60